sensor_id;sensor_type;location;lat;lon;timestamp;P1;durP1;ratioP1;P2;durP2;ratioP2
51618;SDS011;38518;53.164;5.430;2022-12-18T00:01:34;98.60;;;38.97;;
51618;SDS011;38518;53.164;5.430;2022-12-18T00:04:02;98.35;;;39.08;;
51618;SDS011;38518;53.164;5.430;2022-12-18T00:06:31;97.22;;;37.33;;
51618;SDS011;38518;53.164;5.430;2022-12-18T00:08:58;99.05;;;40.35;;
51618;SDS011;38518;53.164;5.430;2022-12-18T00:11:25;102.13;;;38.33;;
51618;SDS011;38518;53.164;5.430;2022-12-18T00:13:53;96.70;;;37.88;;
51618;SDS011;38518;53.164;5.430;2022-12-18T00:16:21;105.63;;;41.50;;
51618;SDS011;38518;53.164;5.430;2022-12-18T00:18:50;87.57;;;33.17;;
51618;SDS011;38518;53.164;5.430;2022-12-18T00:21:17;110.07;;;41.78;;
51618;SDS011;38518;53.164;5.430;2022-12-18T00:23:44;95.22;;;38.67;;
51618;SDS011;38518;53.164;5.430;2022-12-18T00:26:15;93.57;;;36.05;;
51618;SDS011;38518;53.164;5.430;2022-12-18T00:28:46;96.97;;;36.85;;
51618;SDS011;38518;53.164;5.430;2022-12-18T00:31:14;109.45;;;41.45;;
51618;SDS011;38518;53.164;5.430;2022-12-18T00:33:41;96.50;;;38.88;;
51618;SDS011;38518;53.164;5.430;2022-12-18T00:36:12;104.57;;;41.35;;
51618;SDS011;38518;53.164;5.430;2022-12-18T00:38:40;108.95;;;43.15;;
51618;SDS011;38518;53.164;5.430;2022-12-18T00:41:06;84.70;;;33.20;;
51618;SDS011;38518;53.164;5.430;2022-12-18T00:43:33;108.85;;;39.78;;
51618;SDS011;38518;53.164;5.430;2022-12-18T00:45:59;102.07;;;38.80;;
51618;SDS011;38518;53.164;5.430;2022-12-18T00:48:25;94.30;;;37.00;;
51618;SDS011;38518;53.164;5.430;2022-12-18T00:50:51;98.85;;;41.05;;
51618;SDS011;38518;53.164;5.430;2022-12-18T00:53:16;111.90;;;43.08;;
51618;SDS011;38518;53.164;5.430;2022-12-18T00:55:43;118.47;;;44.80;;
51618;SDS011;38518;53.164;5.430;2022-12-18T00:58:10;109.93;;;43.03;;
51618;SDS011;38518;53.164;5.430;2022-12-18T01:00:36;107.13;;;43.92;;
51618;SDS011;38518;53.164;5.430;2022-12-18T01:03:03;93.03;;;40.83;;
51618;SDS011;38518;53.164;5.430;2022-12-18T01:05:29;101.38;;;43.22;;
51618;SDS011;38518;53.164;5.430;2022-12-18T01:07:55;97.32;;;37.08;;
51618;SDS011;38518;53.164;5.430;2022-12-18T01:10:22;89.80;;;36.85;;
51618;SDS011;38518;53.164;5.430;2022-12-18T01:12:48;95.97;;;40.05;;
51618;SDS011;38518;53.164;5.430;2022-12-18T01:15:14;91.63;;;40.75;;
51618;SDS011;38518;53.164;5.430;2022-12-18T01:17:40;94.35;;;40.75;;
51618;SDS011;38518;53.164;5.430;2022-12-18T01:20:07;102.65;;;41.63;;
51618;SDS011;38518;53.164;5.430;2022-12-18T01:22:34;97.82;;;43.63;;
51618;SDS011;38518;53.164;5.430;2022-12-18T01:25:00;101.55;;;44.85;;
51618;SDS011;38518;53.164;5.430;2022-12-18T01:27:27;95.80;;;40.47;;
51618;SDS011;38518;53.164;5.430;2022-12-18T01:29:53;96.18;;;39.05;;
51618;SDS011;38518;53.164;5.430;2022-12-18T01:32:19;88.45;;;38.50;;
51618;SDS011;38518;53.164;5.430;2022-12-18T01:34:45;92.88;;;39.45;;
51618;SDS011;38518;53.164;5.430;2022-12-18T01:37:11;96.75;;;41.22;;
51618;SDS011;38518;53.164;5.430;2022-12-18T01:39:36;95.75;;;40.72;;
51618;SDS011;38518;53.164;5.430;2022-12-18T01:42:02;93.00;;;38.55;;
51618;SDS011;38518;53.164;5.430;2022-12-18T01:47:20;90.43;;;40.83;;
51618;SDS011;38518;53.164;5.430;2022-12-18T01:49:50;87.20;;;40.00;;
51618;SDS011;38518;53.164;5.430;2022-12-18T01:52:16;101.38;;;41.20;;
51618;SDS011;38518;53.164;5.430;2022-12-18T01:54:43;97.45;;;41.67;;
51618;SDS011;38518;53.164;5.430;2022-12-18T01:57:11;88.43;;;38.85;;
51618;SDS011;38518;53.164;5.430;2022-12-18T01:59:37;92.57;;;40.05;;
51618;SDS011;38518;53.164;5.430;2022-12-18T02:02:06;107.05;;;41.58;;
51618;SDS011;38518;53.164;5.430;2022-12-18T02:04:32;102.60;;;41.22;;
51618;SDS011;38518;53.164;5.430;2022-12-18T02:07:14;88.32;;;36.67;;
51618;SDS011;38518;53.164;5.430;2022-12-18T02:10:33;97.55;;;39.13;;
51618;SDS011;38518;53.164;5.430;2022-12-18T02:18:12;89.93;;;37.70;;
51618;SDS011;38518;53.164;5.430;2022-12-18T02:20:48;90.43;;;38.85;;
51618;SDS011;38518;53.164;5.430;2022-12-18T02:23:35;84.13;;;33.55;;
51618;SDS011;38518;53.164;5.430;2022-12-18T02:26:20;90.10;;;37.05;;
51618;SDS011;38518;53.164;5.430;2022-12-18T02:29:15;86.68;;;34.83;;
51618;SDS011;38518;53.164;5.430;2022-12-18T02:31:47;87.40;;;34.55;;
51618;SDS011;38518;53.164;5.430;2022-12-18T02:34:17;94.10;;;38.08;;
51618;SDS011;38518;53.164;5.430;2022-12-18T02:36:45;96.20;;;38.50;;
51618;SDS011;38518;53.164;5.430;2022-12-18T02:39:13;96.15;;;40.08;;
51618;SDS011;38518;53.164;5.430;2022-12-18T02:41:40;102.05;;;40.25;;
51618;SDS011;38518;53.164;5.430;2022-12-18T02:44:08;92.60;;;38.80;;
51618;SDS011;38518;53.164;5.430;2022-12-18T02:49:08;89.85;;;37.50;;
51618;SDS011;38518;53.164;5.430;2022-12-18T02:54:45;85.65;;;33.88;;
51618;SDS011;38518;53.164;5.430;2022-12-18T03:02:56;87.82;;;35.33;;
51618;SDS011;38518;53.164;5.430;2022-12-18T03:05:44;93.35;;;37.30;;
51618;SDS011;38518;53.164;5.430;2022-12-18T03:08:24;98.20;;;38.92;;
51618;SDS011;38518;53.164;5.430;2022-12-18T03:11:02;100.00;;;39.33;;
51618;SDS011;38518;53.164;5.430;2022-12-18T03:13:38;104.80;;;42.17;;
51618;SDS011;38518;53.164;5.430;2022-12-18T03:16:11;110.28;;;42.83;;
51618;SDS011;38518;53.164;5.430;2022-12-18T03:18:45;88.03;;;32.03;;
51618;SDS011;38518;53.164;5.430;2022-12-18T03:21:12;108.35;;;39.72;;
51618;SDS011;38518;53.164;5.430;2022-12-18T03:23:42;98.40;;;37.03;;
51618;SDS011;38518;53.164;5.430;2022-12-18T03:26:12;107.32;;;39.28;;
51618;SDS011;38518;53.164;5.430;2022-12-18T03:28:50;106.63;;;41.90;;
51618;SDS011;38518;53.164;5.430;2022-12-18T03:31:19;103.45;;;39.90;;
51618;SDS011;38518;53.164;5.430;2022-12-18T03:33:55;90.20;;;37.95;;
51618;SDS011;38518;53.164;5.430;2022-12-18T03:36:25;101.00;;;38.15;;
51618;SDS011;38518;53.164;5.430;2022-12-18T03:38:51;98.85;;;39.80;;
51618;SDS011;38518;53.164;5.430;2022-12-18T03:41:31;103.75;;;40.45;;
51618;SDS011;38518;53.164;5.430;2022-12-18T03:44:13;97.88;;;39.47;;
51618;SDS011;38518;53.164;5.430;2022-12-18T03:47:05;90.25;;;36.58;;
51618;SDS011;38518;53.164;5.430;2022-12-18T03:49:36;89.80;;;38.15;;
51618;SDS011;38518;53.164;5.430;2022-12-18T03:52:11;97.22;;;40.70;;
51618;SDS011;38518;53.164;5.430;2022-12-18T03:54:59;97.97;;;39.17;;
51618;SDS011;38518;53.164;5.430;2022-12-18T03:57:27;99.70;;;41.00;;
51618;SDS011;38518;53.164;5.430;2022-12-18T03:59:56;100.13;;;42.13;;
51618;SDS011;38518;53.164;5.430;2022-12-18T04:02:26;96.65;;;40.05;;
51618;SDS011;38518;53.164;5.430;2022-12-18T04:04:53;93.28;;;38.58;;
51618;SDS011;38518;53.164;5.430;2022-12-18T04:07:23;86.97;;;37.90;;
51618;SDS011;38518;53.164;5.430;2022-12-18T04:09:50;87.22;;;37.17;;
51618;SDS011;38518;53.164;5.430;2022-12-18T04:12:19;80.90;;;34.35;;
51618;SDS011;38518;53.164;5.430;2022-12-18T04:14:45;81.45;;;33.83;;
51618;SDS011;38518;53.164;5.430;2022-12-18T04:17:11;85.03;;;33.70;;
51618;SDS011;38518;53.164;5.430;2022-12-18T04:19:37;84.43;;;34.90;;
51618;SDS011;38518;53.164;5.430;2022-12-18T04:22:02;84.47;;;34.65;;
51618;SDS011;38518;53.164;5.430;2022-12-18T04:24:28;78.80;;;32.33;;
51618;SDS011;38518;53.164;5.430;2022-12-18T04:26:54;90.78;;;35.63;;
51618;SDS011;38518;53.164;5.430;2022-12-18T04:29:19;82.75;;;34.00;;
51618;SDS011;38518;53.164;5.430;2022-12-18T04:31:45;88.53;;;34.70;;
51618;SDS011;38518;53.164;5.430;2022-12-18T04:34:11;90.60;;;34.53;;
51618;SDS011;38518;53.164;5.430;2022-12-18T04:36:37;95.13;;;35.15;;
51618;SDS011;38518;53.164;5.430;2022-12-18T04:39:02;88.93;;;34.47;;
51618;SDS011;38518;53.164;5.430;2022-12-18T04:41:28;89.68;;;34.50;;
51618;SDS011;38518;53.164;5.430;2022-12-18T04:43:54;87.60;;;34.60;;
51618;SDS011;38518;53.164;5.430;2022-12-18T04:46:19;94.40;;;34.40;;
51618;SDS011;38518;53.164;5.430;2022-12-18T04:48:45;97.82;;;36.83;;
51618;SDS011;38518;53.164;5.430;2022-12-18T04:51:12;113.18;;;38.42;;
51618;SDS011;38518;53.164;5.430;2022-12-18T04:53:38;103.50;;;36.22;;
51618;SDS011;38518;53.164;5.430;2022-12-18T04:56:04;94.28;;;35.90;;
51618;SDS011;38518;53.164;5.430;2022-12-18T04:58:32;107.22;;;37.88;;
51618;SDS011;38518;53.164;5.430;2022-12-18T05:00:57;97.88;;;36.72;;
51618;SDS011;38518;53.164;5.430;2022-12-18T05:03:23;108.05;;;39.22;;
51618;SDS011;38518;53.164;5.430;2022-12-18T05:05:49;107.55;;;38.00;;
51618;SDS011;38518;53.164;5.430;2022-12-18T05:08:16;97.40;;;37.67;;
51618;SDS011;38518;53.164;5.430;2022-12-18T05:10:42;105.95;;;38.40;;
51618;SDS011;38518;53.164;5.430;2022-12-18T05:13:08;100.90;;;36.40;;
51618;SDS011;38518;53.164;5.430;2022-12-18T05:15:34;108.50;;;39.47;;
51618;SDS011;38518;53.164;5.430;2022-12-18T05:18:00;105.38;;;41.30;;
51618;SDS011;38518;53.164;5.430;2022-12-18T05:20:27;104.55;;;38.58;;
51618;SDS011;38518;53.164;5.430;2022-12-18T05:22:53;104.63;;;38.22;;
51618;SDS011;38518;53.164;5.430;2022-12-18T05:25:19;86.70;;;31.35;;
51618;SDS011;38518;53.164;5.430;2022-12-18T05:27:46;86.93;;;35.28;;
51618;SDS011;38518;53.164;5.430;2022-12-18T05:30:12;88.05;;;34.28;;
51618;SDS011;38518;53.164;5.430;2022-12-18T05:32:38;98.28;;;37.20;;
51618;SDS011;38518;53.164;5.430;2022-12-18T05:35:05;102.85;;;38.50;;
51618;SDS011;38518;53.164;5.430;2022-12-18T05:37:32;98.90;;;36.72;;
51618;SDS011;38518;53.164;5.430;2022-12-18T05:39:58;104.30;;;38.08;;
51618;SDS011;38518;53.164;5.430;2022-12-18T05:42:24;100.82;;;38.17;;
51618;SDS011;38518;53.164;5.430;2022-12-18T05:44:50;96.00;;;35.83;;
51618;SDS011;38518;53.164;5.430;2022-12-18T05:47:15;77.95;;;28.70;;
51618;SDS011;38518;53.164;5.430;2022-12-18T05:49:41;94.63;;;35.00;;
51618;SDS011;38518;53.164;5.430;2022-12-18T05:52:07;100.85;;;36.45;;
51618;SDS011;38518;53.164;5.430;2022-12-18T05:54:33;91.47;;;35.80;;
51618;SDS011;38518;53.164;5.430;2022-12-18T05:56:58;90.35;;;33.83;;
51618;SDS011;38518;53.164;5.430;2022-12-18T05:59:24;96.65;;;35.08;;
51618;SDS011;38518;53.164;5.430;2022-12-18T06:01:50;88.53;;;34.38;;
51618;SDS011;38518;53.164;5.430;2022-12-18T06:04:16;95.15;;;34.60;;
51618;SDS011;38518;53.164;5.430;2022-12-18T06:06:42;94.75;;;34.67;;
51618;SDS011;38518;53.164;5.430;2022-12-18T06:09:08;84.72;;;35.03;;
51618;SDS011;38518;53.164;5.430;2022-12-18T06:11:38;86.60;;;33.60;;
51618;SDS011;38518;53.164;5.430;2022-12-18T06:14:04;91.93;;;35.63;;
51618;SDS011;38518;53.164;5.430;2022-12-18T06:16:31;85.60;;;34.45;;
51618;SDS011;38518;53.164;5.430;2022-12-18T06:18:57;88.65;;;34.50;;
51618;SDS011;38518;53.164;5.430;2022-12-18T06:21:23;84.47;;;32.08;;
51618;SDS011;38518;53.164;5.430;2022-12-18T06:23:49;83.50;;;33.92;;
51618;SDS011;38518;53.164;5.430;2022-12-18T06:26:15;85.40;;;33.35;;
51618;SDS011;38518;53.164;5.430;2022-12-18T06:28:41;81.85;;;33.50;;
51618;SDS011;38518;53.164;5.430;2022-12-18T06:31:07;79.38;;;32.55;;
51618;SDS011;38518;53.164;5.430;2022-12-18T06:33:33;86.28;;;34.83;;
51618;SDS011;38518;53.164;5.430;2022-12-18T06:36:01;82.00;;;32.00;;
51618;SDS011;38518;53.164;5.430;2022-12-18T06:38:27;81.57;;;32.58;;
51618;SDS011;38518;53.164;5.430;2022-12-18T06:40:53;78.82;;;31.75;;
51618;SDS011;38518;53.164;5.430;2022-12-18T06:43:18;73.18;;;28.77;;
51618;SDS011;38518;53.164;5.430;2022-12-18T06:45:44;80.35;;;32.13;;
51618;SDS011;38518;53.164;5.430;2022-12-18T06:48:11;72.18;;;31.98;;
51618;SDS011;38518;53.164;5.430;2022-12-18T06:50:37;83.60;;;33.72;;
51618;SDS011;38518;53.164;5.430;2022-12-18T06:53:06;77.88;;;31.92;;
51618;SDS011;38518;53.164;5.430;2022-12-18T06:55:32;76.95;;;32.50;;
51618;SDS011;38518;53.164;5.430;2022-12-18T06:57:58;73.57;;;30.52;;
51618;SDS011;38518;53.164;5.430;2022-12-18T07:00:24;71.55;;;32.05;;
51618;SDS011;38518;53.164;5.430;2022-12-18T07:02:49;72.65;;;31.38;;
51618;SDS011;38518;53.164;5.430;2022-12-18T07:05:15;69.43;;;30.42;;
51618;SDS011;38518;53.164;5.430;2022-12-18T07:07:41;71.50;;;31.17;;
51618;SDS011;38518;53.164;5.430;2022-12-18T07:10:07;77.40;;;32.72;;
51618;SDS011;38518;53.164;5.430;2022-12-18T07:12:33;69.78;;;30.55;;
51618;SDS011;38518;53.164;5.430;2022-12-18T07:14:58;68.40;;;28.48;;
51618;SDS011;38518;53.164;5.430;2022-12-18T07:17:24;69.30;;;30.50;;
51618;SDS011;38518;53.164;5.430;2022-12-18T07:19:50;65.95;;;28.80;;
51618;SDS011;38518;53.164;5.430;2022-12-18T07:22:16;62.70;;;28.40;;
51618;SDS011;38518;53.164;5.430;2022-12-18T07:24:42;63.90;;;29.52;;
51618;SDS011;38518;53.164;5.430;2022-12-18T07:27:07;66.97;;;28.95;;
51618;SDS011;38518;53.164;5.430;2022-12-18T07:29:33;66.97;;;29.95;;
51618;SDS011;38518;53.164;5.430;2022-12-18T07:31:59;68.40;;;29.80;;
51618;SDS011;38518;53.164;5.430;2022-12-18T07:34:25;66.68;;;29.27;;
51618;SDS011;38518;53.164;5.430;2022-12-18T07:36:51;60.10;;;28.73;;
51618;SDS011;38518;53.164;5.430;2022-12-18T07:39:16;67.85;;;30.15;;
51618;SDS011;38518;53.164;5.430;2022-12-18T07:41:42;66.32;;;27.42;;
51618;SDS011;38518;53.164;5.430;2022-12-18T07:44:11;68.30;;;29.33;;
51618;SDS011;38518;53.164;5.430;2022-12-18T07:46:37;58.47;;;26.75;;
51618;SDS011;38518;53.164;5.430;2022-12-18T07:49:03;60.88;;;27.70;;
51618;SDS011;38518;53.164;5.430;2022-12-18T07:51:29;61.30;;;26.67;;
51618;SDS011;38518;53.164;5.430;2022-12-18T07:53:56;56.08;;;26.05;;
51618;SDS011;38518;53.164;5.430;2022-12-18T07:56:22;61.78;;;27.08;;
51618;SDS011;38518;53.164;5.430;2022-12-18T07:58:47;58.90;;;26.95;;
51618;SDS011;38518;53.164;5.430;2022-12-18T08:01:13;53.10;;;25.75;;
51618;SDS011;38518;53.164;5.430;2022-12-18T08:03:39;53.72;;;26.45;;
51618;SDS011;38518;53.164;5.430;2022-12-18T08:06:06;56.65;;;27.05;;
51618;SDS011;38518;53.164;5.430;2022-12-18T08:08:34;53.15;;;24.45;;
51618;SDS011;38518;53.164;5.430;2022-12-18T08:11:00;54.08;;;25.33;;
51618;SDS011;38518;53.164;5.430;2022-12-18T08:13:27;50.03;;;24.15;;
51618;SDS011;38518;53.164;5.430;2022-12-18T08:15:57;50.90;;;25.00;;
51618;SDS011;38518;53.164;5.430;2022-12-18T08:18:27;50.78;;;23.92;;
51618;SDS011;38518;53.164;5.430;2022-12-18T08:20:54;52.80;;;24.30;;
51618;SDS011;38518;53.164;5.430;2022-12-18T08:23:20;46.78;;;23.58;;
51618;SDS011;38518;53.164;5.430;2022-12-18T08:25:46;54.85;;;24.05;;
51618;SDS011;38518;53.164;5.430;2022-12-18T08:28:12;52.75;;;23.75;;
51618;SDS011;38518;53.164;5.430;2022-12-18T08:30:37;43.50;;;22.25;;
51618;SDS011;38518;53.164;5.430;2022-12-18T08:33:03;52.78;;;23.67;;
51618;SDS011;38518;53.164;5.430;2022-12-18T08:35:29;46.97;;;21.77;;
51618;SDS011;38518;53.164;5.430;2022-12-18T08:37:55;45.88;;;22.88;;
51618;SDS011;38518;53.164;5.430;2022-12-18T08:40:20;47.22;;;23.20;;
51618;SDS011;38518;53.164;5.430;2022-12-18T08:42:46;41.92;;;22.55;;
51618;SDS011;38518;53.164;5.430;2022-12-18T08:45:30;45.92;;;23.55;;
51618;SDS011;38518;53.164;5.430;2022-12-18T08:47:56;43.72;;;24.05;;
51618;SDS011;38518;53.164;5.430;2022-12-18T08:50:22;49.17;;;24.10;;
51618;SDS011;38518;53.164;5.430;2022-12-18T08:52:48;40.05;;;21.75;;
51618;SDS011;38518;53.164;5.430;2022-12-18T08:55:14;41.78;;;23.00;;
51618;SDS011;38518;53.164;5.430;2022-12-18T08:57:39;40.92;;;22.00;;
51618;SDS011;38518;53.164;5.430;2022-12-18T09:00:05;43.78;;;23.65;;
51618;SDS011;38518;53.164;5.430;2022-12-18T09:02:32;40.35;;;22.13;;
51618;SDS011;38518;53.164;5.430;2022-12-18T09:04:58;39.63;;;20.73;;
51618;SDS011;38518;53.164;5.430;2022-12-18T09:07:24;42.40;;;21.38;;
51618;SDS011;38518;53.164;5.430;2022-12-18T09:09:49;38.05;;;20.90;;
51618;SDS011;38518;53.164;5.430;2022-12-18T09:12:15;39.25;;;22.13;;
51618;SDS011;38518;53.164;5.430;2022-12-18T09:14:41;35.38;;;21.35;;
51618;SDS011;38518;53.164;5.430;2022-12-18T09:17:07;36.40;;;20.95;;
51618;SDS011;38518;53.164;5.430;2022-12-18T09:19:33;38.10;;;20.83;;
51618;SDS011;38518;53.164;5.430;2022-12-18T09:21:58;37.38;;;21.27;;
51618;SDS011;38518;53.164;5.430;2022-12-18T09:24:24;37.20;;;21.00;;
51618;SDS011;38518;53.164;5.430;2022-12-18T09:26:52;39.38;;;21.33;;
51618;SDS011;38518;53.164;5.430;2022-12-18T09:29:20;36.97;;;21.23;;
51618;SDS011;38518;53.164;5.430;2022-12-18T09:31:46;36.25;;;20.95;;
51618;SDS011;38518;53.164;5.430;2022-12-18T09:34:12;35.35;;;21.50;;
51618;SDS011;38518;53.164;5.430;2022-12-18T09:36:38;36.70;;;21.80;;
51618;SDS011;38518;53.164;5.430;2022-12-18T09:39:04;36.13;;;21.45;;
51618;SDS011;38518;53.164;5.430;2022-12-18T09:44:10;36.80;;;21.80;;
51618;SDS011;38518;53.164;5.430;2022-12-18T09:46:48;34.90;;;21.27;;
51618;SDS011;38518;53.164;5.430;2022-12-18T09:49:20;34.85;;;20.08;;
51618;SDS011;38518;53.164;5.430;2022-12-18T09:52:13;34.17;;;20.38;;
51618;SDS011;38518;53.164;5.430;2022-12-18T09:54:40;30.67;;;19.65;;
51618;SDS011;38518;53.164;5.430;2022-12-18T09:57:10;31.23;;;18.83;;
51618;SDS011;38518;53.164;5.430;2022-12-18T09:59:39;27.65;;;18.13;;
51618;SDS011;38518;53.164;5.430;2022-12-18T10:02:19;27.13;;;17.48;;
51618;SDS011;38518;53.164;5.430;2022-12-18T10:04:55;30.52;;;18.48;;
51618;SDS011;38518;53.164;5.430;2022-12-18T10:07:28;26.88;;;16.63;;
51618;SDS011;38518;53.164;5.430;2022-12-18T10:10:06;26.55;;;16.10;;
51618;SDS011;38518;53.164;5.430;2022-12-18T10:13:02;28.65;;;16.63;;
51618;SDS011;38518;53.164;5.430;2022-12-18T10:15:54;25.15;;;15.95;;
51618;SDS011;38518;53.164;5.430;2022-12-18T10:27:17;26.45;;;16.30;;
51618;SDS011;38518;53.164;5.430;2022-12-18T10:29:46;30.27;;;16.85;;
51618;SDS011;38518;53.164;5.430;2022-12-18T10:32:16;28.30;;;16.23;;
51618;SDS011;38518;53.164;5.430;2022-12-18T10:34:47;25.52;;;15.68;;
51618;SDS011;38518;53.164;5.430;2022-12-18T10:37:15;25.90;;;16.08;;
51618;SDS011;38518;53.164;5.430;2022-12-18T10:39:43;26.63;;;16.63;;
51618;SDS011;38518;53.164;5.430;2022-12-18T10:42:11;26.88;;;15.75;;
51618;SDS011;38518;53.164;5.430;2022-12-18T10:44:42;27.40;;;16.45;;
51618;SDS011;38518;53.164;5.430;2022-12-18T10:47:11;24.55;;;16.00;;
51618;SDS011;38518;53.164;5.430;2022-12-18T10:49:42;25.10;;;14.45;;
51618;SDS011;38518;53.164;5.430;2022-12-18T10:52:21;22.25;;;14.70;;
51618;SDS011;38518;53.164;5.430;2022-12-18T10:54:54;23.00;;;14.63;;
51618;SDS011;38518;53.164;5.430;2022-12-18T10:59:57;25.25;;;15.60;;
51618;SDS011;38518;53.164;5.430;2022-12-18T11:02:34;25.23;;;16.30;;
51618;SDS011;38518;53.164;5.430;2022-12-18T11:05:01;23.80;;;15.13;;
51618;SDS011;38518;53.164;5.430;2022-12-18T11:07:48;24.20;;;14.55;;
51618;SDS011;38518;53.164;5.430;2022-12-18T11:10:19;22.70;;;13.77;;
51618;SDS011;38518;53.164;5.430;2022-12-18T11:12:47;18.92;;;11.55;;
51618;SDS011;38518;53.164;5.430;2022-12-18T11:15:18;25.10;;;14.05;;
51618;SDS011;38518;53.164;5.430;2022-12-18T11:17:47;23.55;;;14.50;;
51618;SDS011;38518;53.164;5.430;2022-12-18T11:20:31;23.63;;;14.40;;
51618;SDS011;38518;53.164;5.430;2022-12-18T11:23:01;19.00;;;12.65;;
51618;SDS011;38518;53.164;5.430;2022-12-18T11:25:29;21.33;;;12.90;;
51618;SDS011;38518;53.164;5.430;2022-12-18T11:28:25;19.70;;;12.18;;
51618;SDS011;38518;53.164;5.430;2022-12-18T11:34:27;21.00;;;13.20;;
51618;SDS011;38518;53.164;5.430;2022-12-18T11:36:45;18.20;;;10.80;;
51618;SDS011;38518;53.164;5.430;2022-12-18T11:41:49;18.52;;;11.40;;
51618;SDS011;38518;53.164;5.430;2022-12-18T11:44:36;19.27;;;11.82;;
51618;SDS011;38518;53.164;5.430;2022-12-18T11:50:23;15.27;;;8.93;;
51618;SDS011;38518;53.164;5.430;2022-12-18T11:52:51;17.85;;;10.82;;
51618;SDS011;38518;53.164;5.430;2022-12-18T11:55:32;18.20;;;11.52;;
51618;SDS011;38518;53.164;5.430;2022-12-18T12:08:57;19.08;;;11.38;;
51618;SDS011;38518;53.164;5.430;2022-12-18T12:14:23;16.48;;;10.40;;
51618;SDS011;38518;53.164;5.430;2022-12-18T12:25:25;17.27;;;10.70;;
51618;SDS011;38518;53.164;5.430;2022-12-18T12:36:20;14.93;;;9.63;;
51618;SDS011;38518;53.164;5.430;2022-12-18T12:39:08;14.90;;;9.75;;
51618;SDS011;38518;53.164;5.430;2022-12-18T12:41:39;16.42;;;10.57;;
51618;SDS011;38518;53.164;5.430;2022-12-18T12:44:45;16.85;;;10.15;;
51618;SDS011;38518;53.164;5.430;2022-12-18T12:47:25;13.88;;;10.07;;
51618;SDS011;38518;53.164;5.430;2022-12-18T12:49:53;16.23;;;10.30;;
51618;SDS011;38518;53.164;5.430;2022-12-18T12:54:51;13.25;;;9.60;;
51618;SDS011;38518;53.164;5.430;2022-12-18T12:57:30;16.75;;;11.00;;
51618;SDS011;38518;53.164;5.430;2022-12-18T13:00:04;14.90;;;9.68;;
51618;SDS011;38518;53.164;5.430;2022-12-18T13:08:26;15.02;;;9.77;;
51618;SDS011;38518;53.164;5.430;2022-12-18T13:10:54;15.27;;;10.55;;
51618;SDS011;38518;53.164;5.430;2022-12-18T13:13:49;17.23;;;11.23;;
51618;SDS011;38518;53.164;5.430;2022-12-18T13:16:20;16.63;;;10.38;;
51618;SDS011;38518;53.164;5.430;2022-12-18T13:18:53;15.70;;;10.52;;
51618;SDS011;38518;53.164;5.430;2022-12-18T13:21:32;16.33;;;10.45;;
51618;SDS011;38518;53.164;5.430;2022-12-18T13:24:15;13.80;;;10.15;;
51618;SDS011;38518;53.164;5.430;2022-12-18T13:26:53;14.95;;;10.30;;
51618;SDS011;38518;53.164;5.430;2022-12-18T13:32:21;14.45;;;9.70;;
51618;SDS011;38518;53.164;5.430;2022-12-18T13:34:48;16.42;;;11.45;;
51618;SDS011;38518;53.164;5.430;2022-12-18T13:37:41;16.02;;;10.77;;
51618;SDS011;38518;53.164;5.430;2022-12-18T13:43:23;13.93;;;10.02;;
51618;SDS011;38518;53.164;5.430;2022-12-18T13:48:41;13.60;;;9.68;;
51618;SDS011;38518;53.164;5.430;2022-12-18T13:51:16;14.00;;;9.25;;
51618;SDS011;38518;53.164;5.430;2022-12-18T13:53:48;14.52;;;9.90;;
51618;SDS011;38518;53.164;5.430;2022-12-18T13:56:30;13.40;;;8.07;;
51618;SDS011;38518;53.164;5.430;2022-12-18T13:59:14;17.17;;;10.80;;
51618;SDS011;38518;53.164;5.430;2022-12-18T14:01:43;15.95;;;10.55;;
51618;SDS011;38518;53.164;5.430;2022-12-18T14:04:21;13.55;;;8.30;;
51618;SDS011;38518;53.164;5.430;2022-12-18T14:06:57;13.83;;;9.63;;
51618;SDS011;38518;53.164;5.430;2022-12-18T14:09:34;14.90;;;9.20;;
51618;SDS011;38518;53.164;5.430;2022-12-18T14:12:01;13.50;;;9.77;;
51618;SDS011;38518;53.164;5.430;2022-12-18T14:14:47;14.63;;;9.98;;
51618;SDS011;38518;53.164;5.430;2022-12-18T14:17:16;14.95;;;9.38;;
51618;SDS011;38518;53.164;5.430;2022-12-18T14:19:46;14.18;;;9.43;;
51618;SDS011;38518;53.164;5.430;2022-12-18T14:22:16;13.77;;;9.60;;
51618;SDS011;38518;53.164;5.430;2022-12-18T14:24:47;13.13;;;8.93;;
51618;SDS011;38518;53.164;5.430;2022-12-18T14:27:29;14.18;;;9.75;;
51618;SDS011;38518;53.164;5.430;2022-12-18T14:29:55;14.40;;;10.07;;
51618;SDS011;38518;53.164;5.430;2022-12-18T14:32:21;12.90;;;8.95;;
51618;SDS011;38518;53.164;5.430;2022-12-18T14:34:51;13.52;;;9.13;;
51618;SDS011;38518;53.164;5.430;2022-12-18T14:37:25;14.60;;;8.63;;
51618;SDS011;38518;53.164;5.430;2022-12-18T14:39:56;14.25;;;9.30;;
51618;SDS011;38518;53.164;5.430;2022-12-18T14:42:23;13.23;;;8.45;;
51618;SDS011;38518;53.164;5.430;2022-12-18T14:45:31;12.45;;;8.80;;
51618;SDS011;38518;53.164;5.430;2022-12-18T14:47:58;13.45;;;9.43;;
51618;SDS011;38518;53.164;5.430;2022-12-18T14:50:25;13.70;;;9.13;;
51618;SDS011;38518;53.164;5.430;2022-12-18T14:52:51;13.35;;;9.00;;
51618;SDS011;38518;53.164;5.430;2022-12-18T14:55:18;13.10;;;9.25;;
51618;SDS011;38518;53.164;5.430;2022-12-18T14:57:48;13.98;;;9.65;;
51618;SDS011;38518;53.164;5.430;2022-12-18T15:00:17;13.88;;;8.75;;
51618;SDS011;38518;53.164;5.430;2022-12-18T15:02:48;14.05;;;9.52;;
51618;SDS011;38518;53.164;5.430;2022-12-18T15:07:50;13.80;;;9.82;;
51618;SDS011;38518;53.164;5.430;2022-12-18T15:10:19;14.25;;;9.23;;
51618;SDS011;38518;53.164;5.430;2022-12-18T15:12:50;14.35;;;9.48;;
51618;SDS011;38518;53.164;5.430;2022-12-18T15:18:04;15.20;;;9.80;;
51618;SDS011;38518;53.164;5.430;2022-12-18T15:20:45;15.55;;;8.93;;
51618;SDS011;38518;53.164;5.430;2022-12-18T15:25:48;15.23;;;9.48;;
51618;SDS011;38518;53.164;5.430;2022-12-18T15:31:00;14.75;;;9.20;;
51618;SDS011;38518;53.164;5.430;2022-12-18T15:33:32;13.30;;;9.07;;
51618;SDS011;38518;53.164;5.430;2022-12-18T15:36:01;14.30;;;8.63;;
51618;SDS011;38518;53.164;5.430;2022-12-18T15:38:33;15.93;;;9.57;;
51618;SDS011;38518;53.164;5.430;2022-12-18T15:40:59;12.98;;;8.88;;
51618;SDS011;38518;53.164;5.430;2022-12-18T15:43:26;12.88;;;7.72;;
51618;SDS011;38518;53.164;5.430;2022-12-18T15:48:32;10.98;;;7.50;;
51618;SDS011;38518;53.164;5.430;2022-12-18T15:50:59;11.40;;;8.82;;
51618;SDS011;38518;53.164;5.430;2022-12-18T15:53:27;13.55;;;8.60;;
51618;SDS011;38518;53.164;5.430;2022-12-18T15:55:57;13.60;;;8.57;;
51618;SDS011;38518;53.164;5.430;2022-12-18T15:58:41;11.93;;;8.73;;
51618;SDS011;38518;53.164;5.430;2022-12-18T16:01:07;12.65;;;8.63;;
51618;SDS011;38518;53.164;5.430;2022-12-18T16:03:34;12.38;;;8.40;;
51618;SDS011;38518;53.164;5.430;2022-12-18T16:06:00;14.35;;;9.68;;
51618;SDS011;38518;53.164;5.430;2022-12-18T16:08:27;11.38;;;7.80;;
51618;SDS011;38518;53.164;5.430;2022-12-18T16:10:55;12.80;;;9.13;;
51618;SDS011;38518;53.164;5.430;2022-12-18T16:13:21;14.02;;;9.20;;
51618;SDS011;38518;53.164;5.430;2022-12-18T16:15:47;14.07;;;9.88;;
51618;SDS011;38518;53.164;5.430;2022-12-18T16:18:13;15.52;;;9.57;;
51618;SDS011;38518;53.164;5.430;2022-12-18T16:20:39;11.93;;;8.63;;